createdAt,value
2023-05-19T00:01:19.197Z,101474.85
2023-05-19T00:06:25.129Z,101479.34
2023-05-19T00:11:29.217Z,101476.54
2023-05-19T00:16:32.673Z,101475.46
2023-05-19T00:21:38.290Z,101475.27
2023-05-19T00:26:41.510Z,101467.05
2023-05-19T00:31:44.856Z,101468.61
2023-05-19T00:36:47.941Z,101464.26
2023-05-19T00:41:51.349Z,101462.52
2023-05-19T00:46:54.357Z,101457.82
2023-05-19T00:51:58.411Z,101448.26
2023-05-19T00:57:01.558Z,101446.19
2023-05-19T01:02:04.911Z,101444.45
2023-05-19T01:07:08.389Z,101445.67
2023-05-19T01:12:11.642Z,101444.80
2023-05-19T01:17:34.678Z,101444.98
2023-05-19T01:23:08.752Z,101447.40
2023-05-19T01:28:30.806Z,101448.93
2023-05-19T01:33:34.812Z,101450.50
2023-05-19T01:38:39.311Z,101451.55
2023-05-19T01:43:43.082Z,101444.57
2023-05-19T01:48:47.138Z,101440.22
2023-05-19T01:53:50.246Z,101445.79
2023-05-19T01:59:04.333Z,101448.54
2023-05-19T02:04:10.216Z,101447.49
2023-05-19T02:09:41.257Z,101450.45
2023-05-19T02:14:58.798Z,101451.48
2023-05-19T02:20:02.652Z,101450.40
2023-05-19T02:25:06.137Z,101453.89
2023-05-19T02:30:10.164Z,101455.27
2023-05-19T02:35:13.863Z,101458.41
2023-05-19T02:40:18.768Z,101458.59
2023-05-19T02:45:21.749Z,101454.07
2023-05-19T02:50:24.754Z,101452.33
2023-05-19T02:55:27.764Z,101451.65
2023-05-19T03:00:30.898Z,101453.23
2023-05-19T03:05:34.090Z,101448.19
2023-05-19T03:10:37.099Z,101445.78
2023-05-19T03:15:40.093Z,101452.82
2023-05-19T03:20:44.770Z,101454.09
2023-05-19T03:25:48.064Z,101449.80
2023-05-19T03:30:51.126Z,101449.67
2023-05-19T03:35:54.173Z,101449.23
2023-05-19T03:40:57.180Z,101451.25
2023-05-19T03:46:00.353Z,101450.65
2023-05-19T03:51:04.731Z,101450.40
2023-05-19T03:56:08.371Z,101455.91
2023-05-19T04:01:11.821Z,101453.76
2023-05-19T04:06:15.295Z,101454.52
2023-05-19T04:11:20.239Z,101454.91
2023-05-19T04:16:23.443Z,101453.89
2023-05-19T04:21:26.761Z,101457.41
2023-05-19T04:26:31.242Z,101459.21
2023-05-19T04:31:36.117Z,101465.38
2023-05-19T04:36:39.266Z,101464.02
2023-05-19T04:41:44.835Z,101465.10
2023-05-19T04:46:47.983Z,101466.55
2023-05-19T04:51:54.101Z,101466.42
2023-05-19T04:56:58.695Z,101473.46
2023-05-19T05:02:01.822Z,101479.11
2023-05-19T05:07:05.854Z,101477.42
2023-05-19T05:12:09.622Z,101479.95
2023-05-19T05:17:13.922Z,101481.22
2023-05-19T05:22:17.827Z,101476.19
2023-05-19T05:27:21.111Z,101476.93
2023-05-19T05:32:24.824Z,101470.48
2023-05-19T05:37:28.359Z,101466.70
2023-05-19T05:42:31.554Z,101471.26
2023-05-19T05:47:38.161Z,101473.70
2023-05-19T05:52:42.683Z,101468.61
2023-05-19T05:57:46.015Z,101473.30
2023-05-19T06:02:50.954Z,101478.50
2023-05-19T06:07:54.469Z,101475.09
2023-05-19T06:12:57.922Z,101479.59
2023-05-19T06:18:01.577Z,101481.80
2023-05-19T06:23:05.242Z,101485.45
2023-05-19T06:28:08.452Z,101483.38
2023-05-19T06:33:11.557Z,101483.94
2023-05-19T06:38:14.670Z,101487.51
2023-05-19T06:43:18.187Z,101487.60
2023-05-19T06:48:21.699Z,101487.52
2023-05-19T06:53:24.708Z,101483.50
2023-05-19T06:58:28.132Z,101482.94
2023-05-19T07:03:31.563Z,101492.55
2023-05-19T07:08:35.474Z,101486.02
2023-05-19T07:13:38.684Z,101491.41
2023-05-19T07:18:41.757Z,101492.48
2023-05-19T07:23:45.013Z,101496.48
2023-05-19T07:28:48.115Z,101503.34
2023-05-19T07:33:54.372Z,101504.09
2023-05-19T07:38:57.958Z,101506.17
2023-05-19T07:44:01.029Z,101507.16
2023-05-19T07:49:04.746Z,101509.33
2023-05-19T07:54:08.678Z,101509.71
2023-05-19T07:59:11.884Z,101515.24
2023-05-19T08:04:15.070Z,101518.45
2023-05-19T08:09:18.970Z,101514.75
2023-05-19T08:14:23.060Z,101513.77
2023-05-19T08:19:27.153Z,101500.61
2023-05-19T08:24:30.505Z,101497.16
2023-05-19T08:29:33.614Z,101498.85
2023-05-19T08:34:36.618Z,101496.95
2023-05-19T08:39:40.044Z,101498.16
2023-05-19T08:44:44.268Z,101500.04
2023-05-19T08:49:51.885Z,101495.96
2023-05-19T09:00:13.265Z,101502.62
2023-05-19T09:05:17.967Z,101497.71
2023-05-19T09:10:21.205Z,101502.13
2023-05-19T09:15:28.110Z,101501.39
2023-05-19T09:20:31.734Z,101498.90
2023-05-19T09:25:35.112Z,101498.02
2023-05-19T09:30:39.587Z,101500.06
2023-05-19T09:35:47.303Z,101497.33
2023-05-19T09:40:50.408Z,101499.30
2023-05-19T09:46:12.191Z,101495.48
2023-05-19T09:51:17.849Z,101497.42
2023-05-19T09:56:24.110Z,101501.51
2023-05-19T10:01:27.457Z,101500.02
2023-05-19T10:06:31.353Z,101497.95
2023-05-19T10:11:34.664Z,101503.91
2023-05-19T10:16:38.947Z,101497.86
2023-05-19T10:21:42.008Z,101491.58
2023-05-19T10:26:49.829Z,101506.73
2023-05-19T10:31:55.937Z,101505.77
2023-05-19T10:37:12.222Z,101507.34
2023-05-19T10:42:35.960Z,101501.85
2023-05-19T10:47:41.658Z,101501.85
2023-05-19T10:52:45.022Z,101497.90
2023-05-19T10:57:56.931Z,101495.11
2023-05-19T11:03:17.031Z,101498.91
2023-05-19T11:08:32.887Z,101507.46
2023-05-19T11:13:36.760Z,101499.84
2023-05-19T11:18:40.007Z,101496.84
2023-05-19T11:23:44.288Z,101489.16
2023-05-19T11:28:48.324Z,101477.86
2023-05-19T11:33:51.566Z,101483.91
2023-05-19T11:38:55.280Z,101477.45
2023-05-19T11:43:58.294Z,101472.90
2023-05-19T11:49:02.620Z,101478.75
2023-05-19T11:54:05.626Z,101487.78
2023-05-19T11:59:09.960Z,101491.70
2023-05-19T12:04:12.972Z,101498.17
2023-05-19T12:09:16.284Z,101491.85
2023-05-19T12:14:19.595Z,101493.73
2023-05-19T12:19:26.482Z,101493.48
2023-05-19T12:24:29.822Z,101489.49
2023-05-19T12:29:33.231Z,101490.61
2023-05-19T12:34:39.923Z,101492.54
2023-05-19T12:39:43.448Z,101497.48
2023-05-19T12:44:54.020Z,101496.05
2023-05-19T12:50:00.487Z,101496.17
2023-05-19T12:55:06.710Z,101504.52
2023-05-19T13:00:21.807Z,101505.86
2023-05-19T13:05:25.093Z,101497.63
2023-05-19T13:10:29.057Z,101501.78
2023-05-19T13:15:37.766Z,101489.52
2023-05-19T13:20:42.391Z,101481.35
2023-05-19T13:25:45.533Z,101469.46
2023-05-19T13:30:49.932Z,101465.34
2023-05-19T13:35:53.475Z,101466.23
2023-05-19T13:40:56.585Z,101458.15
2023-05-19T13:45:59.628Z,101460.11
2023-05-19T13:51:04.925Z,101477.94
2023-05-19T13:56:08.515Z,101475.89
2023-05-19T14:01:11.612Z,101475.61
2023-05-19T14:06:14.899Z,101478.50
2023-05-19T14:11:20.172Z,101481.15
2023-05-19T14:16:23.374Z,101470.30
2023-05-19T14:21:27.698Z,101460.02
2023-05-19T14:26:31.121Z,101457.89
2023-05-19T14:31:35.369Z,101446.95
2023-05-19T14:36:38.505Z,101440.99
2023-05-19T14:41:41.677Z,101442.69
2023-05-19T14:46:44.859Z,101441.77
2023-05-19T14:51:48.092Z,101436.95
2023-05-19T14:56:51.002Z,101451.82
2023-05-19T15:01:54.110Z,101450.53
2023-05-19T15:12:08.828Z,101457.27
2023-05-19T15:17:11.887Z,101452.98
2023-05-19T15:22:15.045Z,101451.11
2023-05-19T15:27:18.153Z,101442.73
2023-05-19T15:32:21.261Z,101431.27
2023-05-19T15:37:24.332Z,101433.77
2023-05-19T15:42:27.196Z,101428.64
2023-05-19T15:47:30.307Z,101428.38
2023-05-19T15:52:33.506Z,101419.56
2023-05-19T15:57:36.540Z,101417.83
2023-05-19T16:02:39.758Z,101414.90
2023-05-19T16:07:43.127Z,101415.90
2023-05-19T16:12:46.344Z,101416.89
2023-05-19T16:17:49.376Z,101420.84
2023-05-19T16:22:52.757Z,101428.83
2023-05-19T16:27:55.974Z,101428.38
2023-05-19T16:32:59.093Z,101427.38
2023-05-19T16:38:02.397Z,101426.88
2023-05-19T16:43:05.609Z,101425.01
2023-05-19T16:48:08.761Z,101423.45
2023-05-19T16:53:11.928Z,101428.58
2023-05-19T16:58:15.143Z,101425.83
2023-05-19T17:03:18.490Z,101424.12
2023-05-19T17:08:21.461Z,101421.35
2023-05-19T17:13:24.563Z,101417.88
2023-05-19T17:18:27.675Z,101422.30
2023-05-19T17:23:30.789Z,101423.05
2023-05-19T17:28:33.789Z,101419.03
2023-05-19T17:33:37.046Z,101421.70
2023-05-19T17:38:40.724Z,101420.33
2023-05-19T17:43:43.836Z,101426.70
2023-05-19T17:48:46.948Z,101427.92
2023-05-19T17:53:50.455Z,101426.02
2023-05-19T17:58:54.081Z,101425.34
2023-05-19T18:03:57.879Z,101427.27
2023-05-19T18:09:03.576Z,101428.37
2023-05-19T18:14:06.691Z,101425.23
2023-05-19T18:19:09.832Z,101426.13
2023-05-19T18:24:13.002Z,101423.86
2023-05-19T18:29:16.217Z,101424.23
2023-05-19T18:34:19.328Z,101426.20
2023-05-19T18:39:22.535Z,101424.96
2023-05-19T18:44:25.846Z,101430.41
2023-05-19T18:49:28.855Z,101433.61
2023-05-19T18:54:32.820Z,101429.23
2023-05-19T18:59:35.994Z,101432.58
2023-05-19T19:04:39.146Z,101432.25
2023-05-19T19:09:43.963Z,101438.23
2023-05-19T19:14:47.381Z,101437.01
2023-05-19T19:19:50.576Z,101442.80
2023-05-19T19:24:53.791Z,101446.67
2023-05-19T19:30:00.198Z,101447.58
2023-05-19T19:35:03.629Z,101451.27
2023-05-19T19:40:07.308Z,101449.53
2023-05-19T19:45:12.552Z,101457.60
2023-05-19T19:50:18.759Z,101454.64
2023-05-19T19:55:21.949Z,101457.29
2023-05-19T20:00:25.199Z,101455.36
2023-05-19T20:05:28.395Z,101459.23
2023-05-19T20:10:31.810Z,101469.92
2023-05-19T20:15:35.021Z,101463.98
2023-05-19T20:20:39.591Z,101460.12
2023-05-19T20:25:54.807Z,101465.39
2023-05-19T20:31:06.511Z,101465.39
2023-05-19T20:36:11.147Z,101467.66
2023-05-19T20:41:15.049Z,101471.00
2023-05-19T20:46:18.215Z,101468.05
2023-05-19T20:51:22.595Z,101463.30
2023-05-19T20:56:25.701Z,101461.74
2023-05-19T21:01:30.199Z,101459.45
2023-05-19T21:06:33.976Z,101450.19
2023-05-19T21:11:37.284Z,101452.99
2023-05-19T21:16:42.707Z,101455.63
2023-05-19T21:21:47.392Z,101451.08
2023-05-19T21:26:51.626Z,101451.95
2023-05-19T21:31:56.472Z,101451.61
2023-05-19T21:36:59.481Z,101451.96
2023-05-19T21:42:03.232Z,101457.04
2023-05-19T21:47:06.824Z,101462.30
2023-05-19T21:52:10.243Z,101460.02
2023-05-19T21:57:13.247Z,101459.68
2023-05-19T22:02:16.620Z,101461.24
2023-05-19T22:07:27.081Z,101462.83
2023-05-19T22:12:32.239Z,101461.59
2023-05-19T22:17:35.289Z,101454.59
2023-05-19T22:22:38.322Z,101450.56
2023-05-19T22:27:41.317Z,101450.92
2023-05-19T22:32:44.344Z,101454.60
2023-05-19T22:37:47.441Z,101456.19
2023-05-19T22:42:50.648Z,101458.27
2023-05-19T22:47:55.500Z,101456.17
2023-05-19T22:52:58.711Z,101458.80
2023-05-19T22:58:01.713Z,101459.50
2023-05-19T23:03:04.976Z,101457.40
2023-05-19T23:08:08.137Z,101457.76
2023-05-19T23:13:12.168Z,101454.27
2023-05-19T23:18:15.394Z,101450.58
2023-05-19T23:23:19.916Z,101449.52
2023-05-19T23:28:22.928Z,101451.81
2023-05-19T23:33:26.241Z,101449.02
2023-05-19T23:38:29.348Z,101453.37
2023-05-19T23:43:32.809Z,101454.08
2023-05-19T23:48:36.816Z,101451.64
2023-05-19T23:53:39.912Z,101448.49
2023-05-19T23:58:43.136Z,101445.70
